createdAt,value
2018-06-14T00:01:31.983Z,5.93
2018-06-14T00:03:59.688Z,6.20
2018-06-14T00:06:27.464Z,6.28
2018-06-14T00:08:55.076Z,5.50
2018-06-14T00:11:23.664Z,5.87
2018-06-14T00:13:51.407Z,6.28
2018-06-14T00:16:19.127Z,5.85
2018-06-14T00:18:46.739Z,6.47
2018-06-14T00:21:14.484Z,5.90
2018-06-14T00:23:42.231Z,5.42
2018-06-14T00:26:09.974Z,5.75
2018-06-14T00:28:37.690Z,5.67
2018-06-14T00:31:05.396Z,5.50
2018-06-14T00:33:33.165Z,6.22
2018-06-14T00:36:07.526Z,7.00
2018-06-14T00:38:35.523Z,5.70
2018-06-14T00:41:03.217Z,6.12
2018-06-14T00:43:31.032Z,5.42
2018-06-14T00:45:58.748Z,5.80
2018-06-14T00:48:26.480Z,6.63
2018-06-14T00:50:54.244Z,6.12
2018-06-14T00:53:21.937Z,5.80
2018-06-14T00:55:49.670Z,5.90
2018-06-14T00:58:17.368Z,6.03
2018-06-14T01:00:45.099Z,5.90
2018-06-14T01:03:12.805Z,5.55
2018-06-14T01:05:40.547Z,6.27
2018-06-14T01:08:08.288Z,8.13
2018-06-14T01:10:36.044Z,5.95
2018-06-14T01:13:03.786Z,6.60
2018-06-14T01:15:31.551Z,6.12
2018-06-14T01:17:59.243Z,6.22
2018-06-14T01:20:26.972Z,8.65
2018-06-14T01:22:54.696Z,6.58
2018-06-14T01:25:22.399Z,7.47
2018-06-14T01:27:50.125Z,7.62
2018-06-14T01:30:17.862Z,6.67
2018-06-14T01:32:45.558Z,7.62
2018-06-14T01:35:13.292Z,8.30
2018-06-14T01:37:52.437Z,8.40
2018-06-14T01:40:20.152Z,8.10
2018-06-14T01:42:47.883Z,8.20
2018-06-14T01:45:15.610Z,8.38
2018-06-14T01:47:43.328Z,9.55
2018-06-14T01:50:11.037Z,8.40
2018-06-14T01:52:38.775Z,8.53
2018-06-14T01:55:06.487Z,7.87
2018-06-14T01:57:34.284Z,8.93
2018-06-14T02:00:01.936Z,7.25
2018-06-14T02:02:29.627Z,7.42
2018-06-14T02:04:57.322Z,8.23
2018-06-14T02:07:25.035Z,7.40
2018-06-14T02:09:52.643Z,7.05
2018-06-14T02:12:20.392Z,6.85
2018-06-14T02:14:48.076Z,7.05
2018-06-14T02:17:15.827Z,7.40
2018-06-14T02:19:43.544Z,8.08
2018-06-14T02:22:11.162Z,8.75
2018-06-14T02:24:38.888Z,7.42
2018-06-14T02:27:06.621Z,6.87
2018-06-14T02:29:34.343Z,7.33
2018-06-14T02:32:02.100Z,6.92
2018-06-14T02:34:29.804Z,6.58
2018-06-14T02:36:57.616Z,7.37
2018-06-14T02:39:25.317Z,7.37
2018-06-14T02:41:53.025Z,6.95
2018-06-14T02:44:20.820Z,8.40
2018-06-14T02:46:48.529Z,5.87
2018-06-14T02:49:16.245Z,7.22
2018-06-14T02:51:43.952Z,7.08
2018-06-14T02:54:11.663Z,8.25
2018-06-14T02:56:39.386Z,6.60
2018-06-14T02:59:07.079Z,7.47
2018-06-14T03:01:35.424Z,7.45
2018-06-14T03:04:03.167Z,7.35
2018-06-14T03:06:30.981Z,8.55
2018-06-14T03:08:58.695Z,6.85
2018-06-14T03:11:26.408Z,7.87
2018-06-14T03:13:54.735Z,6.50
2018-06-14T03:16:22.451Z,8.45
2018-06-14T03:18:50.062Z,7.10
2018-06-14T03:21:17.878Z,7.35
2018-06-14T03:23:45.593Z,9.50
2018-06-14T03:26:13.868Z,10.90
2018-06-14T03:28:41.571Z,7.85
2018-06-14T03:31:09.238Z,7.35
2018-06-14T03:33:36.827Z,8.03
2018-06-14T03:36:04.617Z,7.72
2018-06-14T03:38:32.615Z,7.33
2018-06-14T03:41:00.319Z,6.72
2018-06-14T03:43:28.044Z,8.50
2018-06-14T03:45:55.827Z,8.00
2018-06-14T03:48:23.429Z,7.15
2018-06-14T03:50:51.000Z,7.75
2018-06-14T03:53:18.733Z,7.92
2018-06-14T03:55:46.445Z,8.80
2018-06-14T03:58:14.980Z,7.50
2018-06-14T04:00:42.675Z,7.30
2018-06-14T04:03:10.682Z,8.55
2018-06-14T04:05:38.305Z,7.53
2018-06-14T04:08:06.069Z,8.80
2018-06-14T04:10:33.795Z,8.50
2018-06-14T04:13:01.526Z,7.42
2018-06-14T04:15:29.262Z,8.05
2018-06-14T04:18:00.988Z,7.37
2018-06-14T04:20:28.934Z,9.53
2018-06-14T04:22:56.671Z,7.47
2018-06-14T04:25:24.376Z,8.63
2018-06-14T04:27:52.100Z,9.05
2018-06-14T04:30:19.820Z,9.10
2018-06-14T04:32:47.533Z,7.75
2018-06-14T04:35:15.235Z,8.30
2018-06-14T04:37:42.964Z,8.83
2018-06-14T04:40:10.697Z,8.05
2018-06-14T04:42:38.437Z,8.10
2018-06-14T04:45:06.172Z,7.72
2018-06-14T04:47:33.767Z,8.98
2018-06-14T04:50:01.498Z,7.53
2018-06-14T04:52:29.143Z,8.88
2018-06-14T04:54:56.943Z,7.65
2018-06-14T04:57:24.707Z,7.83
2018-06-14T04:59:52.432Z,8.68
2018-06-14T05:02:20.237Z,8.38
2018-06-14T05:04:47.799Z,9.20
2018-06-14T05:07:15.560Z,8.25
2018-06-14T05:09:43.311Z,8.75
2018-06-14T05:12:11.064Z,8.28
2018-06-14T05:14:38.638Z,6.75
2018-06-14T05:17:06.473Z,8.45
2018-06-14T05:19:34.214Z,8.68
2018-06-14T05:22:01.982Z,7.72
2018-06-14T05:24:29.716Z,10.05
2018-06-14T05:26:57.435Z,9.13
2018-06-14T05:29:25.223Z,8.50
2018-06-14T05:31:53.061Z,8.55
2018-06-14T05:34:20.972Z,8.55
2018-06-14T05:36:48.700Z,8.00
2018-06-14T05:39:16.434Z,7.50
2018-06-14T05:41:44.536Z,7.90
2018-06-14T05:44:12.241Z,7.83
2018-06-14T05:46:39.961Z,7.15
2018-06-14T05:49:07.707Z,7.97
2018-06-14T05:51:35.467Z,8.60
2018-06-14T05:54:03.265Z,8.60
2018-06-14T05:56:30.896Z,8.50
2018-06-14T05:58:58.624Z,8.13
2018-06-14T06:01:26.447Z,7.97
2018-06-14T06:03:54.192Z,7.93
2018-06-14T06:06:21.977Z,7.50
2018-06-14T06:08:49.714Z,8.43
2018-06-14T06:11:17.444Z,7.90
2018-06-14T06:13:45.827Z,8.07
2018-06-14T06:16:13.763Z,7.30
2018-06-14T06:18:41.490Z,7.70
2018-06-14T06:21:09.209Z,9.00
2018-06-14T06:23:36.941Z,8.70
2018-06-14T06:26:04.825Z,8.87
2018-06-14T06:28:32.560Z,8.83
2018-06-14T06:31:00.444Z,8.83
2018-06-14T06:33:28.261Z,9.10
2018-06-14T06:35:56.012Z,8.03
2018-06-14T06:38:23.796Z,7.80
2018-06-14T06:40:51.516Z,8.63
2018-06-14T06:43:19.286Z,8.83
2018-06-14T06:45:47.031Z,9.20
2018-06-14T06:48:14.763Z,8.70
2018-06-14T06:50:42.684Z,9.27
2018-06-14T06:53:10.473Z,9.43
2018-06-14T06:55:38.170Z,8.83
2018-06-14T06:58:05.948Z,9.07
2018-06-14T07:00:33.685Z,8.37
2018-06-14T07:03:01.444Z,9.97
2018-06-14T07:05:29.143Z,9.10
2018-06-14T07:07:56.907Z,8.40
2018-06-14T07:10:24.695Z,8.10
2018-06-14T07:12:52.295Z,6.97
2018-06-14T07:15:20.012Z,8.70
2018-06-14T07:17:47.767Z,8.33
2018-06-14T07:20:15.476Z,8.60
2018-06-14T07:22:43.200Z,8.93
2018-06-14T07:25:10.821Z,8.23
2018-06-14T07:27:38.628Z,8.37
2018-06-14T07:30:06.411Z,8.13
2018-06-14T07:32:34.142Z,8.07
2018-06-14T07:35:01.847Z,8.70
2018-06-14T07:37:29.583Z,7.73
2018-06-14T07:39:57.284Z,9.47
2018-06-14T07:42:25.035Z,8.93
2018-06-14T07:44:52.751Z,9.97
2018-06-14T07:47:20.485Z,10.03
2018-06-14T07:49:48.194Z,9.40
2018-06-14T07:52:15.923Z,9.27
2018-06-14T07:54:43.659Z,9.53
2018-06-14T07:57:11.448Z,7.40
2018-06-14T07:59:39.184Z,9.50
2018-06-14T08:02:07.279Z,7.77
2018-06-14T08:04:35.016Z,6.97
2018-06-14T08:07:02.755Z,7.20
2018-06-14T08:09:30.460Z,7.07
2018-06-14T08:11:58.199Z,6.57
2018-06-14T08:14:25.779Z,6.93
2018-06-14T08:16:53.533Z,6.37
2018-06-14T08:19:21.087Z,7.03
2018-06-14T08:21:48.685Z,5.30
2018-06-14T08:24:16.374Z,5.63
2018-06-14T08:26:44.115Z,6.30
2018-06-14T08:29:11.797Z,7.47
2018-06-14T08:31:39.511Z,7.27
2018-06-14T08:34:07.224Z,6.33
2018-06-14T08:36:34.979Z,6.10
2018-06-14T08:39:03.443Z,5.80
2018-06-14T08:41:31.174Z,6.00
2018-06-14T08:43:58.771Z,6.10
2018-06-14T08:46:26.492Z,6.47
2018-06-14T08:48:55.192Z,6.03
2018-06-14T08:51:22.803Z,6.27
2018-06-14T08:53:50.572Z,6.73
2018-06-14T08:56:18.262Z,5.70
2018-06-14T08:58:46.030Z,6.90
2018-06-14T09:01:13.764Z,6.00
2018-06-14T09:03:41.592Z,5.80
2018-06-14T09:06:10.818Z,5.83
2018-06-14T09:08:38.575Z,6.00
2018-06-14T09:11:06.300Z,5.40
2018-06-14T09:13:34.093Z,5.50
2018-06-14T09:16:01.818Z,4.93
2018-06-14T09:18:29.452Z,4.70
2018-06-14T09:20:57.216Z,5.23
2018-06-14T09:23:25.088Z,5.10
2018-06-14T09:25:52.802Z,4.70
2018-06-14T09:28:20.564Z,4.60
2018-06-14T09:30:48.354Z,4.43
2018-06-14T09:33:16.508Z,5.30
2018-06-14T09:35:44.237Z,5.80
2018-06-14T09:38:12.096Z,4.67
2018-06-14T09:40:40.088Z,4.27
2018-06-14T09:43:07.984Z,5.10
2018-06-14T09:45:35.567Z,4.13
2018-06-14T09:48:03.319Z,4.80
2018-06-14T09:50:31.046Z,4.33
2018-06-14T09:52:58.796Z,4.97
2018-06-14T09:55:26.532Z,4.80
2018-06-14T09:57:54.305Z,4.20
2018-06-14T10:00:22.108Z,3.93
2018-06-14T10:02:49.736Z,4.20
2018-06-14T10:05:17.502Z,3.90
2018-06-14T10:07:45.322Z,3.97
2018-06-14T10:10:13.101Z,3.63
2018-06-14T10:12:40.908Z,3.60
2018-06-14T10:15:08.651Z,3.30
2018-06-14T10:17:36.463Z,3.63
2018-06-14T10:20:04.207Z,3.57
2018-06-14T10:22:31.943Z,3.90
2018-06-14T10:24:59.711Z,3.47
2018-06-14T10:27:27.468Z,3.00
2018-06-14T10:29:55.231Z,3.37
2018-06-14T10:32:22.951Z,3.40
2018-06-14T10:34:50.728Z,3.67
2018-06-14T10:37:18.559Z,3.20
2018-06-14T10:39:46.317Z,3.10
2018-06-14T10:42:14.084Z,3.37
2018-06-14T10:44:41.900Z,3.70
2018-06-14T10:47:09.644Z,3.50
2018-06-14T10:49:37.380Z,3.80
2018-06-14T10:52:04.998Z,3.53
2018-06-14T10:54:32.696Z,3.50
2018-06-14T10:57:00.447Z,3.67
2018-06-14T10:59:28.163Z,4.10
2018-06-14T11:01:55.893Z,3.40
2018-06-14T11:04:23.532Z,2.83
2018-06-14T11:06:51.400Z,3.30
2018-06-14T11:09:19.100Z,3.80
2018-06-14T11:11:46.855Z,2.80
2018-06-14T11:14:14.584Z,3.03
2018-06-14T11:16:42.405Z,2.80
2018-06-14T11:19:10.175Z,3.03
2018-06-14T11:21:37.915Z,3.00
2018-06-14T11:24:05.697Z,3.10
2018-06-14T11:26:33.447Z,2.90
2018-06-14T11:29:01.073Z,3.37
2018-06-14T11:31:28.798Z,3.27
2018-06-14T11:33:56.594Z,3.20
2018-06-14T11:36:24.302Z,3.17
2018-06-14T11:38:51.927Z,3.50
2018-06-14T11:41:19.626Z,3.17
2018-06-14T11:43:47.253Z,2.90
2018-06-14T11:46:15.378Z,3.30
2018-06-14T11:48:43.116Z,2.87
2018-06-14T11:51:10.844Z,3.37
2018-06-14T11:53:38.811Z,3.20
2018-06-14T11:56:06.589Z,3.77
2018-06-14T11:58:34.354Z,3.03
2018-06-14T12:01:02.166Z,3.57
2018-06-14T12:03:29.984Z,3.53
2018-06-14T12:05:57.708Z,4.13
2018-06-14T12:08:25.457Z,3.80
2018-06-14T12:10:53.211Z,3.50
2018-06-14T12:13:20.840Z,3.33
2018-06-14T12:15:48.585Z,3.80
2018-06-14T12:18:16.357Z,3.17
2018-06-14T12:20:44.075Z,2.70
2018-06-14T12:23:11.716Z,2.97
2018-06-14T12:25:39.473Z,3.23
2018-06-14T12:28:07.244Z,2.60
2018-06-14T12:30:34.896Z,3.30
2018-06-14T12:33:02.693Z,2.90
2018-06-14T12:35:30.459Z,3.10
2018-06-14T12:37:58.330Z,3.20
2018-06-14T12:40:26.068Z,3.70
2018-06-14T12:42:53.827Z,3.53
2018-06-14T12:45:21.564Z,3.30
2018-06-14T12:47:49.348Z,3.03
2018-06-14T12:50:17.091Z,3.60
2018-06-14T12:52:44.883Z,2.70
2018-06-14T12:55:12.515Z,3.30
2018-06-14T12:57:40.259Z,4.10
2018-06-14T13:00:07.968Z,3.00
2018-06-14T13:02:35.745Z,3.03
2018-06-14T13:05:03.498Z,2.70
2018-06-14T13:07:31.251Z,3.50
2018-06-14T13:09:58.963Z,2.80
2018-06-14T13:12:26.713Z,2.50
2018-06-14T13:14:54.331Z,2.53
2018-06-14T13:17:22.127Z,3.13
2018-06-14T13:19:49.890Z,2.80
2018-06-14T13:22:17.659Z,3.20
2018-06-14T13:24:45.294Z,2.83
2018-06-14T13:27:13.869Z,3.00
2018-06-14T13:29:42.008Z,2.47
2018-06-14T13:32:10.116Z,2.90
2018-06-14T13:34:38.360Z,2.83
2018-06-14T13:37:06.165Z,2.97
2018-06-14T13:39:33.983Z,2.50
2018-06-14T13:42:02.071Z,2.80
2018-06-14T13:44:29.848Z,2.93
2018-06-14T13:46:57.603Z,2.77
2018-06-14T13:49:25.340Z,4.30
2018-06-14T13:51:52.978Z,2.70
2018-06-14T13:54:20.753Z,2.43
2018-06-14T13:56:48.375Z,2.50
2018-06-14T13:59:16.112Z,3.00
2018-06-14T14:01:43.856Z,3.20
2018-06-14T14:04:11.492Z,3.13
2018-06-14T14:06:39.203Z,2.90
2018-06-14T14:09:09.419Z,3.33
2018-06-14T14:11:37.216Z,3.20
2018-06-14T14:14:05.043Z,3.17
2018-06-14T14:16:32.780Z,2.10
2018-06-14T14:19:00.688Z,2.87
2018-06-14T14:21:28.431Z,2.70
2018-06-14T14:23:56.224Z,2.80
2018-06-14T14:26:23.937Z,2.77
2018-06-14T14:28:51.711Z,3.10
2018-06-14T14:31:19.597Z,3.10
2018-06-14T14:33:47.335Z,3.50
2018-06-14T14:36:15.145Z,2.87
2018-06-14T14:38:42.911Z,2.90
2018-06-14T14:41:10.647Z,3.00
2018-06-14T14:43:38.423Z,3.20
2018-06-14T14:46:06.246Z,2.53
2018-06-14T14:48:34.029Z,2.73
2018-06-14T14:51:01.663Z,3.10
2018-06-14T14:53:29.425Z,3.33
2018-06-14T14:55:57.261Z,2.63
2018-06-14T14:58:25.016Z,3.70
2018-06-14T15:00:52.793Z,3.10
2018-06-14T15:03:20.615Z,3.23
2018-06-14T15:05:48.600Z,3.30
2018-06-14T15:08:16.246Z,3.77
2018-06-14T15:10:43.988Z,2.90
2018-06-14T15:13:11.776Z,4.00
2018-06-14T15:15:39.560Z,3.20
2018-06-14T15:18:07.379Z,2.97
2018-06-14T15:20:35.144Z,3.20
2018-06-14T15:23:02.935Z,2.90
2018-06-14T15:25:30.759Z,3.33
2018-06-14T15:27:58.578Z,3.90
2018-06-14T15:30:26.378Z,3.87
2018-06-14T15:32:54.230Z,3.23
2018-06-14T15:35:22.013Z,4.80
2018-06-14T15:37:50.396Z,3.30
2018-06-14T15:40:18.132Z,4.00
2018-06-14T15:42:45.999Z,4.43
2018-06-14T15:45:13.748Z,4.50
2018-06-14T15:47:41.431Z,5.60
2018-06-14T15:50:09.200Z,4.87
2018-06-14T15:52:37.305Z,5.67
2018-06-14T15:55:16.416Z,5.73
2018-06-14T15:57:44.183Z,5.80
2018-06-14T16:00:11.936Z,6.07
2018-06-14T16:02:39.684Z,6.20
2018-06-14T16:05:07.476Z,7.00
2018-06-14T16:07:35.220Z,6.43
2018-06-14T16:10:03.079Z,7.40
2018-06-14T16:12:30.832Z,7.70
2018-06-14T16:14:58.775Z,6.90
2018-06-14T16:17:26.660Z,6.87
2018-06-14T16:19:54.435Z,8.27
2018-06-14T16:22:22.168Z,7.50
2018-06-14T16:24:49.984Z,7.67
2018-06-14T16:27:17.730Z,9.40
2018-06-14T16:29:45.387Z,9.90
2018-06-14T16:32:13.145Z,9.20
2018-06-14T16:34:40.922Z,7.70
2018-06-14T16:37:08.575Z,8.90
2018-06-14T16:39:36.437Z,9.27
2018-06-14T16:42:04.236Z,9.43
2018-06-14T16:44:31.993Z,8.30
2018-06-14T16:46:59.754Z,8.10
2018-06-14T16:49:27.512Z,10.50
2018-06-14T16:51:55.348Z,7.93
2018-06-14T16:54:23.063Z,7.93
2018-06-14T16:56:50.918Z,7.90
2018-06-14T16:59:18.759Z,9.07
2018-06-14T17:01:46.524Z,9.00
2018-06-14T17:04:14.556Z,8.83
2018-06-14T17:06:42.404Z,9.30
2018-06-14T17:09:10.207Z,10.30
2018-06-14T17:11:38.024Z,9.80
2018-06-14T17:14:05.837Z,8.73
2018-06-14T17:16:33.627Z,8.03
2018-06-14T17:19:01.457Z,8.90
2018-06-14T17:21:29.240Z,8.40
2018-06-14T17:23:57.070Z,9.67
2018-06-14T17:26:24.988Z,8.73
2018-06-14T17:28:52.755Z,9.87
2018-06-14T17:31:20.527Z,9.33
2018-06-14T17:33:48.314Z,10.70
2018-06-14T17:36:16.160Z,10.17
2018-06-14T17:38:43.968Z,9.90
2018-06-14T17:41:11.823Z,9.57
2018-06-14T17:43:39.549Z,10.17
2018-06-14T17:46:07.428Z,8.80
2018-06-14T17:48:35.188Z,7.23
2018-06-14T17:51:02.973Z,10.43
2018-06-14T17:53:30.731Z,8.77
2018-06-14T17:55:58.579Z,9.17
2018-06-14T17:58:26.349Z,11.33
2018-06-14T18:00:54.199Z,10.37
2018-06-14T18:03:21.973Z,11.57
2018-06-14T18:05:49.763Z,10.43
2018-06-14T18:08:17.538Z,10.30
2018-06-14T18:10:45.311Z,10.37
2018-06-14T18:13:13.139Z,9.97
2018-06-14T18:15:40.936Z,11.00
2018-06-14T18:18:08.719Z,10.53
2018-06-14T18:20:36.481Z,12.20
2018-06-14T18:23:04.340Z,14.43
2018-06-14T18:25:32.172Z,12.93
2018-06-14T18:27:59.829Z,12.60
2018-06-14T18:30:27.620Z,12.23
2018-06-14T18:32:55.512Z,12.17
2018-06-14T18:35:24.351Z,12.03
2018-06-14T18:37:52.171Z,12.43
2018-06-14T18:40:20.004Z,10.80
2018-06-14T18:42:47.772Z,9.57
2018-06-14T18:45:15.613Z,11.90
2018-06-14T18:47:43.376Z,9.53
2018-06-14T18:50:11.176Z,11.63
2018-06-14T18:52:38.941Z,11.90
2018-06-14T18:55:06.733Z,12.87
2018-06-14T18:57:34.477Z,10.90
2018-06-14T19:00:02.337Z,10.63
2018-06-14T19:02:30.113Z,11.03
2018-06-14T19:04:57.907Z,11.20
2018-06-14T19:07:25.723Z,10.60
2018-06-14T19:09:53.464Z,10.20
2018-06-14T19:12:21.255Z,10.70
2018-06-14T19:14:48.993Z,10.20
2018-06-14T19:17:16.845Z,10.90
2018-06-14T19:19:44.544Z,10.23
2018-06-14T19:22:12.315Z,9.83
2018-06-14T19:24:40.127Z,10.27
2018-06-14T19:27:07.921Z,10.40
2018-06-14T19:29:35.648Z,10.53
2018-06-14T19:32:03.437Z,10.10
2018-06-14T19:34:31.208Z,10.60
2018-06-14T19:36:58.967Z,10.50
2018-06-14T19:39:26.764Z,10.00
2018-06-14T19:41:54.484Z,10.90
2018-06-14T19:44:22.236Z,10.37
2018-06-14T19:46:49.981Z,9.27
2018-06-14T19:49:22.279Z,8.90
2018-06-14T19:51:50.033Z,10.87
2018-06-14T19:54:17.780Z,9.27
2018-06-14T19:56:45.540Z,10.33
2018-06-14T19:59:13.258Z,9.90
2018-06-14T20:01:41.027Z,11.00
2018-06-14T20:04:08.777Z,11.70
2018-06-14T20:06:36.545Z,9.57
2018-06-14T20:09:06.098Z,10.47
2018-06-14T20:11:33.848Z,10.83
2018-06-14T20:14:01.667Z,9.60
2018-06-14T20:16:29.374Z,11.07
2018-06-14T20:18:57.148Z,10.17
2018-06-14T20:21:24.887Z,11.03
2018-06-14T20:23:52.663Z,10.30
2018-06-14T20:26:20.451Z,11.33
2018-06-14T20:28:48.283Z,10.43
2018-06-14T20:31:16.040Z,11.37
2018-06-14T20:33:43.787Z,11.70
2018-06-14T20:36:11.967Z,11.87
2018-06-14T20:38:39.720Z,10.60
2018-06-14T20:41:07.551Z,12.10
2018-06-14T20:43:35.301Z,12.33
2018-06-14T20:46:03.140Z,12.10
2018-06-14T20:48:30.892Z,14.70
2018-06-14T20:50:58.635Z,14.37
2018-06-14T20:53:26.339Z,13.80
2018-06-14T20:55:53.970Z,13.80
2018-06-14T20:58:21.679Z,14.33
2018-06-14T21:00:49.523Z,14.63
2018-06-14T21:03:17.255Z,14.20
2018-06-14T21:05:45.063Z,13.90
2018-06-14T21:08:12.847Z,13.90
2018-06-14T21:10:40.590Z,12.40
2018-06-14T21:13:08.324Z,13.10
2018-06-14T21:15:36.512Z,13.00
2018-06-14T21:18:04.295Z,13.50
2018-06-14T21:20:32.111Z,13.27
2018-06-14T21:22:59.852Z,12.00
2018-06-14T21:25:27.589Z,13.27
2018-06-14T21:27:55.323Z,12.40
2018-06-14T21:30:23.052Z,14.17
2018-06-14T21:32:50.882Z,14.10
2018-06-14T21:35:18.615Z,13.33
2018-06-14T21:37:46.371Z,12.30
2018-06-14T21:40:14.197Z,13.00
2018-06-14T21:42:42.026Z,12.60
2018-06-14T21:45:09.940Z,13.30
2018-06-14T21:47:38.331Z,12.17
2018-06-14T21:50:06.158Z,13.27
2018-06-14T21:52:33.787Z,12.10
2018-06-14T21:55:01.537Z,10.90
2018-06-14T21:57:29.259Z,11.63
2018-06-14T21:59:57.050Z,12.63
2018-06-14T22:02:24.870Z,11.00
2018-06-14T22:04:53.602Z,11.80
2018-06-14T22:07:21.346Z,11.47
2018-06-14T22:09:49.140Z,12.87
2018-06-14T22:12:16.928Z,11.03
2018-06-14T22:14:45.034Z,10.63
2018-06-14T22:17:12.848Z,11.00
2018-06-14T22:19:40.943Z,9.90
2018-06-14T22:22:08.696Z,11.00
2018-06-14T22:24:36.491Z,8.90
2018-06-14T22:27:04.232Z,8.57
2018-06-14T22:29:31.968Z,10.10
2018-06-14T22:31:59.731Z,11.03
2018-06-14T22:34:38.999Z,11.03
2018-06-14T22:37:06.708Z,10.73
2018-06-14T22:39:34.449Z,10.70
2018-06-14T22:42:02.224Z,10.30
2018-06-14T22:44:31.031Z,10.47
2018-06-14T22:46:59.101Z,9.57
2018-06-14T22:49:27.049Z,10.30
2018-06-14T22:52:10.600Z,9.43
2018-06-14T22:54:38.367Z,10.30
2018-06-14T22:57:06.128Z,10.60
2018-06-14T22:59:33.888Z,9.53
2018-06-14T23:02:01.633Z,8.30
2018-06-14T23:04:29.459Z,8.70
2018-06-14T23:06:58.531Z,9.40
2018-06-14T23:10:36.337Z,10.47
2018-06-14T23:13:04.803Z,10.90
2018-06-14T23:15:32.868Z,9.73
2018-06-14T23:18:00.861Z,10.77
2018-06-14T23:20:29.672Z,9.57
2018-06-14T23:22:58.235Z,9.73
2018-06-14T23:25:26.896Z,9.20
2018-06-14T23:27:54.668Z,9.60
2018-06-14T23:30:22.508Z,9.93
2018-06-14T23:32:50.815Z,10.63
2018-06-14T23:35:18.678Z,9.60
2018-06-14T23:37:46.317Z,9.83
2018-06-14T23:40:14.058Z,10.17
2018-06-14T23:42:42.680Z,11.40
2018-06-14T23:45:10.419Z,10.17
2018-06-14T23:47:38.237Z,9.77
2018-06-14T23:50:06.191Z,8.37
2018-06-14T23:52:34.178Z,9.60
2018-06-14T23:55:01.905Z,9.17
2018-06-14T23:57:29.689Z,8.13
2018-06-14T23:59:57.459Z,8.00
